Waseca, Saskatchewan

Past 24 Hour Conditions

This table is a summary of hourly weather conditions for the past 24 hours. This summary includes the following parameters: temperature, humidity, dew point, wind speed and direction, air pressure, visibility and/or wind chill and humidex.
Date / Time
(CST)
Conditions Temp (°F) Humidity (%) Dew Point (°F) Wind (mph) Pressure (inches) Vis (mi) Wind Chill
16 April 2014
19:00 N/A 28 84 24 SE 8 30.3 N/A 20
18:00 N/A 28 77 22 SE 8 30.3 N/A 20
17:00 N/A 29   76 23 ESE 10 30.3 N/A 20
16:00 N/A 29   70 20 ESE 6 30.3 N/A 23
15:00 N/A 28 71 20 ESE 12 gust 19 30.3 N/A 18
14:00 N/A 28 71 20 SE 7 30.3 N/A 21
13:00 N/A 28 71 20 ESE 9 gust 18 30.3 N/A 19
12:00 N/A 26 76 20 ESE 13 gust 19 30.3 N/A 15
11:00 N/A 27 69 18 ESE 9 30.3 N/A 17
10:00 N/A 25 68 16 E 11 30.3 N/A 14
9:00 N/A 23 71 15 E 8 30.3 N/A 14
8:00 N/A 21 77 15 ESE 6 30.3 N/A 13
7:00 N/A 17   92 15 ESE 6 30.3 N/A 8
6:00 N/A 19 95 17 ESE 4 30.2 N/A 13
5:00 N/A 20 95 19 ESE 4 30.2 N/A 14
4:00 N/A 20 95 19 E 4 30.2 N/A 14
3:00 N/A 20 95 19 ESE 5 30.2 N/A 13
2:00 N/A 22 94 21 ESE 9 30.2 N/A 12
1:00 N/A 22 96 21 E 5 30.2 N/A 15
00:00 N/A 23 94 22 E 6 30.1 N/A 16
15 April 2014
23:00 N/A 24 93 23 ENE 7 30.1 N/A 16
22:00 N/A 24 92 22 ENE 7 30.1 N/A 17
21:00 N/A 25 87 22 ENE 9 30.1 N/A 16
20:00 N/A 26 87 23 ENE 10 30.0 N/A 16
19:00 N/A 26 90 24 ENE 10 30.0 N/A 17
N/A
Not available
 ↑ 
Highest temperature
 ↓ 
Lowest temperature
*
Value not significant.

If you require additional historical weather information, please visit Climate Data Online.